createdAt,value
2022-11-08T00:03:31.322Z,66
2022-11-08T00:09:11.312Z,62
2022-11-08T00:14:51.432Z,60
2022-11-08T00:20:32.201Z,60
2022-11-08T00:26:12.262Z,72
2022-11-08T00:31:53.816Z,66
2022-11-08T00:37:35.341Z,68
2022-11-08T00:43:15.359Z,66
2022-11-08T00:48:55.438Z,74
2022-11-08T00:54:38.858Z,66
2022-11-08T01:00:20.198Z,70
2022-11-08T01:06:04.429Z,60
2022-11-08T01:11:45.925Z,60
2022-11-08T01:17:27.118Z,72
2022-11-08T01:23:07.475Z,62
2022-11-08T01:28:48.033Z,76
2022-11-08T01:34:29.356Z,68
2022-11-08T01:40:10.308Z,60
2022-11-08T01:45:51.883Z,58
2022-11-08T01:51:33.376Z,72
2022-11-08T01:57:14.885Z,64
2022-11-08T02:02:56.633Z,66
2022-11-08T02:13:39.429Z,6
2022-11-08T02:19:20.786Z,72
2022-11-08T02:25:01.156Z,70
2022-11-08T02:30:41.308Z,74
2022-11-08T02:36:22.628Z,60
2022-11-08T02:42:03.827Z,58
2022-11-08T02:47:43.909Z,60
2022-11-08T02:53:25.190Z,64
2022-11-08T02:59:06.827Z,62
2022-11-08T03:04:46.981Z,68
2022-11-08T03:10:28.444Z,62
2022-11-08T03:16:08.995Z,70
2022-11-08T03:21:49.722Z,64
2022-11-08T03:27:30.074Z,52
2022-11-08T03:33:10.009Z,64
2022-11-08T03:38:50.143Z,68
2022-11-08T03:44:31.497Z,64
2022-11-08T03:50:12.852Z,58
2022-11-08T03:55:54.391Z,64
2022-11-08T04:01:36.720Z,66
2022-11-08T04:07:18.767Z,62
2022-11-08T04:12:59.149Z,58
2022-11-08T04:18:40.937Z,62
2022-11-08T04:24:22.504Z,56
2022-11-08T04:30:02.773Z,66
2022-11-08T04:35:42.852Z,58
2022-11-08T04:41:24.055Z,64
2022-11-08T04:47:05.340Z,50
2022-11-08T04:52:46.955Z,68
2022-11-08T04:58:28.415Z,64
2022-11-08T05:04:09.743Z,74
2022-11-08T05:09:50.908Z,72
2022-11-08T05:15:31.032Z,68
2022-11-08T05:21:12.367Z,58
2022-11-08T05:26:53.819Z,68
2022-11-08T05:32:34.423Z,60
2022-11-08T05:38:15.520Z,66
2022-11-08T05:43:58.144Z,70
2022-11-08T05:49:40.000Z,66
2022-11-08T05:55:20.532Z,70
2022-11-08T06:01:02.047Z,52
2022-11-08T06:06:44.365Z,56
2022-11-08T06:12:25.039Z,60
2022-11-08T06:18:05.493Z,64
2022-11-08T06:23:46.008Z,58
2022-11-08T06:29:25.884Z,68
2022-11-08T06:35:06.249Z,60
2022-11-08T06:40:46.423Z,48
2022-11-08T06:46:27.253Z,70
2022-11-08T06:52:08.092Z,68
2022-11-08T06:57:48.187Z,66
2022-11-08T07:03:28.508Z,60
2022-11-08T07:09:09.054Z,68
2022-11-08T07:14:49.895Z,60
2022-11-08T07:20:30.828Z,72
2022-11-08T07:26:11.544Z,64
2022-11-08T07:31:52.469Z,60
2022-11-08T07:37:32.814Z,58
2022-11-08T07:43:25.687Z,66
2022-11-08T07:49:06.506Z,70
2022-11-08T07:54:46.371Z,72
2022-11-08T08:00:26.945Z,60
2022-11-08T08:06:07.666Z,54
2022-11-08T08:11:51.258Z,64
2022-11-08T08:17:31.770Z,70
2022-11-08T08:23:11.840Z,58
2022-11-08T08:28:52.218Z,60
2022-11-08T08:34:32.632Z,70
2022-11-08T08:40:12.853Z,70
2022-11-08T08:45:52.993Z,70
2022-11-08T08:51:33.991Z,70
2022-11-08T08:57:14.498Z,60
2022-11-08T09:02:54.604Z,64
2022-11-08T09:08:34.656Z,66
2022-11-08T09:14:14.814Z,64
2022-11-08T09:19:58.042Z,64
2022-11-08T09:25:38.429Z,78
2022-11-08T09:31:19.215Z,76
2022-11-08T09:36:59.829Z,68
2022-11-08T09:42:39.928Z,64
2022-11-08T09:48:20.358Z,76
2022-11-08T09:54:00.150Z,76
2022-11-08T09:59:40.369Z,80
2022-11-08T10:05:20.726Z,62
2022-11-08T10:11:01.031Z,72
2022-11-08T10:16:42.081Z,28
2022-11-08T10:22:22.837Z,76
2022-11-08T10:28:02.565Z,16
2022-11-08T10:33:45.881Z,22
2022-11-08T10:39:26.346Z,24
2022-11-08T10:45:06.581Z,18
2022-11-08T10:50:47.554Z,26
2022-11-08T10:56:28.047Z,18
2022-11-08T11:02:08.622Z,80
2022-11-08T11:07:49.476Z,54
2022-11-08T11:13:30.418Z,24
2022-11-08T11:19:10.983Z,0
2022-11-08T11:24:51.475Z,2
2022-11-08T11:30:34.532Z,28
2022-11-08T11:36:17.369Z,2
2022-11-08T11:41:57.627Z,20
2022-11-08T11:47:37.701Z,2
2022-11-08T11:53:17.991Z,2
2022-11-08T11:58:58.149Z,0
2022-11-08T12:04:38.153Z,6
2022-11-08T12:10:18.276Z,8
2022-11-08T12:15:58.873Z,72
2022-11-08T12:21:39.590Z,22
2022-11-08T12:27:20.518Z,78
2022-11-08T12:33:00.220Z,74
2022-11-08T12:38:40.169Z,66
2022-11-08T12:44:20.611Z,20
2022-11-08T12:50:01.352Z,2
2022-11-08T12:55:41.853Z,2
2022-11-08T13:01:22.801Z,86
2022-11-08T13:07:03.621Z,78
2022-11-08T13:12:43.920Z,72
2022-11-08T13:18:24.198Z,72
2022-11-08T13:24:53.154Z,68
2022-11-08T13:30:33.348Z,66
2022-11-08T13:36:13.217Z,82
2022-11-08T13:41:54.062Z,70
2022-11-08T13:47:34.072Z,76
2022-11-08T13:53:14.133Z,80
2022-11-08T13:58:54.506Z,76
2022-11-08T14:04:34.749Z,70
2022-11-08T14:10:14.796Z,68
2022-11-08T14:15:55.343Z,70
2022-11-08T14:21:35.298Z,78
2022-11-08T14:27:15.553Z,74
2022-11-08T14:32:56.399Z,76
2022-11-08T14:38:36.304Z,68
2022-11-08T14:44:16.294Z,68
2022-11-08T14:49:56.569Z,78
2022-11-08T14:55:36.702Z,74
2022-11-08T15:01:17.144Z,74
2022-11-08T15:06:58.464Z,78
2022-11-08T15:12:38.746Z,66
2022-11-08T15:18:18.720Z,66
2022-11-08T15:23:59.047Z,74
2022-11-08T15:29:38.898Z,68
2022-11-08T15:35:18.872Z,74
2022-11-08T15:40:59.042Z,66
2022-11-08T15:46:38.914Z,66
2022-11-08T15:52:21.990Z,66
2022-11-08T15:58:02.022Z,76
2022-11-08T16:03:42.345Z,66
2022-11-08T16:09:24.483Z,80
2022-11-08T16:15:04.911Z,66
2022-11-08T16:20:44.825Z,70
2022-11-08T16:26:24.867Z,68
2022-11-08T16:32:05.049Z,64
2022-11-08T16:37:45.149Z,70
2022-11-08T16:43:25.162Z,76
2022-11-08T16:49:05.280Z,64
2022-11-08T16:54:46.063Z,64
2022-11-08T17:00:25.950Z,64
2022-11-08T17:06:06.535Z,66
2022-11-08T17:11:46.832Z,68
2022-11-08T17:17:27.003Z,72
2022-11-08T17:23:07.053Z,70
2022-11-08T17:28:47.251Z,76
2022-11-08T17:34:27.085Z,70
2022-11-08T17:40:07.470Z,72
2022-11-08T17:45:48.297Z,64
2022-11-08T17:51:28.523Z,60
2022-11-08T17:57:08.404Z,72
2022-11-08T18:02:48.317Z,76
2022-11-08T18:08:28.625Z,70
2022-11-08T18:14:11.728Z,64
2022-11-08T18:19:51.748Z,74
2022-11-08T18:31:03.878Z,62
2022-11-08T18:36:44.026Z,64
2022-11-08T18:42:24.082Z,72
2022-11-08T18:48:04.389Z,70
2022-11-08T18:53:44.208Z,78
2022-11-08T18:59:24.327Z,70
2022-11-08T19:05:05.293Z,70
2022-11-08T19:10:46.049Z,70
2022-11-08T19:16:26.126Z,60
2022-11-08T19:22:06.268Z,64
2022-11-08T19:27:48.204Z,72
2022-11-08T19:33:28.264Z,72
2022-11-08T19:39:09.746Z,64
2022-11-08T19:44:50.006Z,60
2022-11-08T19:50:29.933Z,64
2022-11-08T19:56:10.371Z,64
2022-11-08T20:01:51.571Z,76
2022-11-08T20:07:32.531Z,72
2022-11-08T20:13:12.798Z,64
2022-11-08T20:18:52.951Z,60
2022-11-08T20:24:33.197Z,74
2022-11-08T20:30:13.797Z,66
2022-11-08T20:35:53.653Z,70
2022-11-08T20:41:33.765Z,74
2022-11-08T20:47:14.448Z,70
2022-11-08T20:52:54.771Z,90
2022-11-08T20:58:34.624Z,76
2022-11-08T21:04:16.367Z,72
2022-11-08T21:10:45.087Z,60
2022-11-08T21:17:22.870Z,62
2022-11-08T21:23:03.276Z,64
2022-11-08T21:28:43.682Z,66
2022-11-08T21:34:33.177Z,68
2022-11-08T21:40:13.848Z,64
2022-11-08T21:45:53.907Z,60
2022-11-08T21:51:34.078Z,64
2022-11-08T21:57:14.191Z,64
2022-11-08T22:02:54.397Z,66
2022-11-08T22:08:34.504Z,72
2022-11-08T22:14:14.440Z,62
2022-11-08T22:19:54.270Z,68
2022-11-08T22:25:34.442Z,74
2022-11-08T22:31:14.808Z,68
2022-11-08T22:36:55.209Z,60
2022-11-08T22:42:35.790Z,76
2022-11-08T22:48:17.939Z,70
2022-11-08T22:53:58.914Z,60
2022-11-08T22:59:38.760Z,66
2022-11-08T23:05:21.548Z,76
2022-11-08T23:11:01.636Z,66
2022-11-08T23:16:41.952Z,72
2022-11-08T23:22:22.301Z,62
2022-11-08T23:28:02.313Z,72
2022-11-08T23:33:42.329Z,60
2022-11-08T23:39:22.440Z,80
2022-11-08T23:45:02.673Z,60
2022-11-08T23:50:42.939Z,60
2022-11-08T23:56:23.253Z,64
